Artondale, Washington
Current Conditions -  °F | °C
As of 2:53 PM on Saturday 25 Oct 2014 (Local Time) from KTIW Reporting Station
Light Rain Light Rain  
Wind Chill: 56°   Ceiling: 6000
Heat Index: 56°   Visibility: 9mi
Dew Point: 51°   Wind: 0mph
Humidity: 84%   Direction: NA
Pressure: 29.3"   Gusts: NA
Location:  47.2986°N, 122.616°W
Report Text: KTIW 252153Z 00000KT 9SM -RA OVC060 13/11 A2930 RMK AO2 SLP921 P0004 T01330106
Loading
Personal Weather Stations






























Interactive Weather Map
Tropical Storm Tracking
New forecast layout! Learn more

10-Day Weather Forecast

Advertisements
Track Severe Weather on mobile